createdAt,value
2023-05-22T00:02:12.265Z,15.40
2023-05-22T00:04:40.856Z,15.30
2023-05-22T00:07:09.463Z,15.20
2023-05-22T00:09:38.228Z,15.20
2023-05-22T00:12:07.786Z,15.20
2023-05-22T00:14:36.406Z,15.20
2023-05-22T00:17:04.834Z,15.20
2023-05-22T00:19:33.345Z,15.10
2023-05-22T00:22:02.133Z,15.10
2023-05-22T00:24:32.018Z,15.00
2023-05-22T00:27:00.865Z,15.10
2023-05-22T00:29:30.533Z,15.10
2023-05-22T00:31:58.948Z,15.10
2023-05-22T00:34:27.180Z,15.10
2023-05-22T00:36:55.970Z,15.10
2023-05-22T00:39:25.012Z,15.10
2023-05-22T00:41:53.790Z,15.10
2023-05-22T00:44:23.247Z,15.10
2023-05-22T00:46:51.670Z,15.10
2023-05-22T00:49:20.131Z,15.00
2023-05-22T00:51:48.871Z,15.00
2023-05-22T00:54:18.119Z,15.00
2023-05-22T00:56:47.458Z,15.00
2023-05-22T00:59:16.151Z,15.00
2023-05-22T01:01:45.216Z,15.00
2023-05-22T01:04:14.810Z,15.00
2023-05-22T01:06:46.793Z,15.00
2023-05-22T01:09:15.270Z,15.10
2023-05-22T01:12:00.570Z,15.00
2023-05-22T01:14:52.948Z,15.00
2023-05-22T01:17:41.142Z,15.00
2023-05-22T01:20:29.948Z,15.00
2023-05-22T01:23:04.120Z,15.00
2023-05-22T01:25:54.216Z,15.00
2023-05-22T01:28:31.324Z,14.90
2023-05-22T01:31:19.643Z,14.90
2023-05-22T01:33:53.501Z,14.90
2023-05-22T01:36:26.301Z,14.80
2023-05-22T01:38:56.655Z,14.80
2023-05-22T01:41:29.398Z,14.80
2023-05-22T01:44:23.675Z,14.70
2023-05-22T01:46:52.598Z,14.70
2023-05-22T01:49:20.865Z,14.70
2023-05-22T01:52:50.739Z,14.60
2023-05-22T01:55:27.615Z,14.60
2023-05-22T01:58:03.139Z,14.70
2023-05-22T02:00:33.810Z,14.60
2023-05-22T02:03:09.389Z,14.60
2023-05-22T02:05:58.095Z,14.60
2023-05-22T02:08:28.022Z,14.70
2023-05-22T02:10:58.384Z,14.60
2023-05-22T02:13:27.678Z,14.70
2023-05-22T02:15:58.012Z,14.70
2023-05-22T02:18:31.731Z,14.80
2023-05-22T02:21:02.880Z,14.70
2023-05-22T02:23:33.466Z,14.60
2023-05-22T02:26:02.021Z,14.60
2023-05-22T02:28:31.354Z,14.50
2023-05-22T02:31:00.360Z,14.50
2023-05-22T02:33:30.061Z,14.50
2023-05-22T02:35:59.251Z,14.50
2023-05-22T02:38:27.428Z,14.50
2023-05-22T02:40:56.795Z,14.50
2023-05-22T02:43:25.493Z,14.50
2023-05-22T02:45:54.333Z,14.40
2023-05-22T02:48:23.252Z,14.40
2023-05-22T02:50:51.320Z,14.40
2023-05-22T02:53:19.719Z,14.40
2023-05-22T02:55:48.548Z,14.40
2023-05-22T02:58:18.001Z,14.50
2023-05-22T03:00:47.340Z,14.50
2023-05-22T03:03:18.253Z,14.50
2023-05-22T03:05:46.761Z,14.50
2023-05-22T03:08:43.580Z,14.60
2023-05-22T03:11:12.472Z,14.40
2023-05-22T03:13:41.140Z,14.50
2023-05-22T03:16:10.185Z,14.40
2023-05-22T03:18:42.956Z,14.40
2023-05-22T03:21:11.450Z,14.40
2023-05-22T03:23:40.490Z,14.30
2023-05-22T03:26:09.096Z,14.30
2023-05-22T03:28:39.424Z,14.30
2023-05-22T03:31:09.720Z,14.20
2023-05-22T03:33:52.932Z,14.20
2023-05-22T03:36:23.272Z,14.10
2023-05-22T03:38:52.316Z,14.10
2023-05-22T03:41:20.867Z,14.00
2023-05-22T03:43:49.749Z,14.00
2023-05-22T03:46:18.494Z,14.00
2023-05-22T03:48:47.235Z,14.00
2023-05-22T03:51:19.314Z,14.10
2023-05-22T03:53:48.685Z,14.10
2023-05-22T03:56:17.566Z,14.10
2023-05-22T03:58:50.864Z,14.10
2023-05-22T04:01:19.427Z,14.30
2023-05-22T04:03:48.339Z,14.30
2023-05-22T04:06:17.742Z,14.30
2023-05-22T04:08:47.108Z,14.20
2023-05-22T04:11:16.205Z,14.30
2023-05-22T04:13:45.144Z,14.30
2023-05-22T04:16:38.916Z,14.30
2023-05-22T04:19:09.942Z,14.40
2023-05-22T04:21:38.499Z,14.40
2023-05-22T04:24:10.915Z,14.40
2023-05-22T04:26:42.297Z,14.40
2023-05-22T04:29:14.688Z,14.70
2023-05-22T04:31:44.857Z,14.70
2023-05-22T04:34:16.986Z,15.00
2023-05-22T04:36:46.603Z,15.20
2023-05-22T04:39:15.418Z,15.30
2023-05-22T04:41:44.559Z,15.70
2023-05-22T04:44:15.407Z,15.80
2023-05-22T04:46:44.299Z,15.60
2023-05-22T04:49:13.673Z,15.50
2023-05-22T04:51:42.576Z,15.80
2023-05-22T04:54:30.046Z,16.30
2023-05-22T04:57:18.438Z,16.20
2023-05-22T05:00:06.875Z,15.90
2023-05-22T05:02:38.726Z,15.80
2023-05-22T05:05:07.280Z,15.80
2023-05-22T05:07:39.012Z,16.20
2023-05-22T05:10:08.555Z,16.30
2023-05-22T05:12:37.580Z,16.30
2023-05-22T05:15:08.020Z,16.30
2023-05-22T05:17:36.378Z,16.50
2023-05-22T05:20:07.390Z,16.40
2023-05-22T05:22:37.504Z,16.10
2023-05-22T05:25:09.537Z,16.10
2023-05-22T05:27:39.971Z,16.10
2023-05-22T05:30:08.978Z,16.30
2023-05-22T05:32:56.187Z,16.90
2023-05-22T05:35:35.284Z,17.00
2023-05-22T05:38:12.488Z,16.60
2023-05-22T05:40:47.610Z,16.80
2023-05-22T05:43:16.607Z,17.20
2023-05-22T05:45:45.913Z,17.60
2023-05-22T05:48:14.648Z,17.40
2023-05-22T05:50:46.051Z,17.50
2023-05-22T05:53:16.236Z,17.80
2023-05-22T05:55:50.680Z,17.80
2023-05-22T05:58:19.476Z,18.30
2023-05-22T06:01:06.089Z,18.60
2023-05-22T06:03:36.077Z,19.20
2023-05-22T06:06:29.928Z,19.10
2023-05-22T06:09:16.611Z,18.70
2023-05-22T06:12:15.069Z,19.00
2023-05-22T06:14:45.838Z,19.30
2023-05-22T06:17:17.057Z,19.20
2023-05-22T06:19:47.340Z,19.70
2023-05-22T06:22:17.531Z,19.90
2023-05-22T06:24:49.632Z,20.00
2023-05-22T06:27:23.285Z,20.20
2023-05-22T06:29:51.822Z,20.00
2023-05-22T06:32:21.597Z,20.40
2023-05-22T06:34:53.329Z,20.80
2023-05-22T06:37:23.834Z,20.90
2023-05-22T06:39:52.478Z,20.80
2023-05-22T06:42:33.223Z,20.40
2023-05-22T06:45:20.124Z,20.20
2023-05-22T06:48:04.544Z,20.90
2023-05-22T06:50:37.488Z,21.20
2023-05-22T06:53:06.765Z,20.70
2023-05-22T06:55:35.350Z,20.90
2023-05-22T06:58:11.703Z,21.00
2023-05-22T07:00:40.914Z,21.20
2023-05-22T07:03:15.197Z,21.50
2023-05-22T07:05:57.978Z,20.80
2023-05-22T07:08:29.730Z,21.00
2023-05-22T07:10:59.471Z,21.60
2023-05-22T07:13:28.797Z,22.20
2023-05-22T07:15:57.844Z,21.80
2023-05-22T07:18:26.766Z,22.20
2023-05-22T07:20:55.966Z,22.60
2023-05-22T07:23:26.355Z,21.70
2023-05-22T07:25:55.065Z,21.80
2023-05-22T07:28:27.367Z,22.40
2023-05-22T07:31:34.556Z,22.60
2023-05-22T07:34:04.126Z,23.10
2023-05-22T07:36:32.884Z,23.00
2023-05-22T07:39:01.667Z,22.40
2023-05-22T07:41:30.254Z,22.20
2023-05-22T07:43:58.976Z,22.50
2023-05-22T07:46:35.566Z,22.20
2023-05-22T07:49:12.337Z,22.70
2023-05-22T07:51:43.993Z,22.00
2023-05-22T07:54:14.212Z,22.20
2023-05-22T07:56:45.876Z,22.40
2023-05-22T07:59:19.694Z,22.20
2023-05-22T08:01:48.405Z,21.90
2023-05-22T08:04:16.920Z,22.00
2023-05-22T08:06:45.572Z,22.70
2023-05-22T08:09:14.536Z,23.20
2023-05-22T08:11:42.930Z,23.20
2023-05-22T08:14:12.114Z,23.20
2023-05-22T08:16:40.326Z,23.20
2023-05-22T08:19:09.392Z,23.60
2023-05-22T08:21:38.912Z,23.10
2023-05-22T08:24:08.907Z,23.00
2023-05-22T08:26:37.675Z,23.30
2023-05-22T08:29:05.978Z,23.80
2023-05-22T08:31:34.686Z,23.90
2023-05-22T08:34:05.087Z,24.20
2023-05-22T08:36:34.301Z,24.60
2023-05-22T08:39:03.795Z,24.60
2023-05-22T08:41:32.497Z,24.20
2023-05-22T08:44:00.840Z,23.80
2023-05-22T08:46:31.250Z,23.90
2023-05-22T08:49:00.230Z,24.20
2023-05-22T08:51:31.727Z,24.60
2023-05-22T08:54:05.964Z,24.60
2023-05-22T08:56:45.676Z,24.70
2023-05-22T08:59:22.680Z,24.70
2023-05-22T09:01:52.989Z,25.10
2023-05-22T09:04:24.014Z,25.30
2023-05-22T09:06:54.626Z,25.50
2023-05-22T09:09:23.319Z,25.30
2023-05-22T09:11:54.558Z,24.50
2023-05-22T09:14:25.584Z,24.80
2023-05-22T09:16:55.624Z,25.30
2023-05-22T09:19:24.555Z,24.90
2023-05-22T09:21:53.545Z,25.10
2023-05-22T09:24:22.122Z,24.80
2023-05-22T09:26:52.591Z,24.50
2023-05-22T09:29:21.149Z,24.60
2023-05-22T09:31:49.936Z,24.60
2023-05-22T09:34:18.944Z,24.30
2023-05-22T09:36:49.516Z,24.80
2023-05-22T09:39:18.296Z,25.50
2023-05-22T09:41:46.930Z,24.70
2023-05-22T09:44:16.616Z,25.00
2023-05-22T09:46:46.714Z,24.90
2023-05-22T09:49:17.083Z,24.60
2023-05-22T09:51:49.605Z,24.50
2023-05-22T09:54:20.600Z,24.20
2023-05-22T09:56:51.546Z,23.80
2023-05-22T09:59:23.735Z,23.50
2023-05-22T10:01:52.878Z,23.60
2023-05-22T10:04:23.763Z,23.80
2023-05-22T10:06:55.043Z,24.00
2023-05-22T10:09:31.396Z,24.30
2023-05-22T10:12:04.491Z,24.60
2023-05-22T10:14:34.934Z,24.70
2023-05-22T10:17:06.796Z,24.80
2023-05-22T10:19:38.746Z,25.00
2023-05-22T10:22:11.023Z,24.90
2023-05-22T10:24:41.298Z,24.80
2023-05-22T10:27:09.943Z,24.40
2023-05-22T10:29:45.874Z,24.50
2023-05-22T10:32:45.802Z,24.60
2023-05-22T10:35:16.884Z,24.20
2023-05-22T10:38:37.786Z,24.20
2023-05-22T10:41:08.579Z,24.60
2023-05-22T10:43:43.932Z,24.80
2023-05-22T10:46:13.238Z,24.60
2023-05-22T10:48:53.621Z,24.10
2023-05-22T10:51:23.648Z,24.70
2023-05-22T10:53:54.092Z,25.40
2023-05-22T10:56:25.347Z,25.50
2023-05-22T10:58:59.562Z,25.50
2023-05-22T11:01:28.069Z,25.80
2023-05-22T11:04:09.388Z,25.60
2023-05-22T11:06:49.114Z,25.60
2023-05-22T11:09:22.116Z,25.60
2023-05-22T11:12:28.902Z,25.30
2023-05-22T11:15:08.448Z,24.90
2023-05-22T11:17:40.317Z,24.60
2023-05-22T11:20:16.128Z,24.70
2023-05-22T11:23:00.623Z,25.20
2023-05-22T11:25:30.374Z,25.60
2023-05-22T11:27:59.149Z,25.30
2023-05-22T11:30:30.764Z,25.40
2023-05-22T11:33:00.875Z,25.40
2023-05-22T11:35:30.450Z,25.00
2023-05-22T11:37:59.053Z,24.90
2023-05-22T11:40:29.785Z,24.80
2023-05-22T11:42:58.241Z,24.60
2023-05-22T11:45:27.395Z,24.60
2023-05-22T11:47:56.822Z,24.50
2023-05-22T11:50:41.019Z,24.60
2023-05-22T11:53:12.859Z,24.70
2023-05-22T11:55:43.029Z,24.60
2023-05-22T11:58:11.495Z,24.90
2023-05-22T12:00:39.948Z,25.20
2023-05-22T12:03:09.255Z,25.30
2023-05-22T12:05:38.253Z,24.90
2023-05-22T12:08:06.570Z,24.70
2023-05-22T12:10:35.209Z,24.70
2023-05-22T12:13:04.119Z,24.80
2023-05-22T12:15:33.239Z,24.40
2023-05-22T12:18:02.157Z,24.20
2023-05-22T12:20:31.389Z,24.20
2023-05-22T12:23:00.203Z,24.40
2023-05-22T12:25:36.425Z,24.20
2023-05-22T12:28:07.806Z,24.50
2023-05-22T12:30:42.999Z,24.50
2023-05-22T12:33:15.357Z,24.40
2023-05-22T12:35:44.088Z,24.30
2023-05-22T12:38:13.816Z,23.70
2023-05-22T12:40:42.831Z,23.60
2023-05-22T12:43:11.735Z,23.70
2023-05-22T12:45:43.286Z,23.10
2023-05-22T12:48:13.200Z,23.10
2023-05-22T12:50:41.770Z,22.80
2023-05-22T12:53:10.588Z,22.90
2023-05-22T12:55:40.302Z,23.00
2023-05-22T12:58:08.849Z,23.10
2023-05-22T13:00:37.584Z,23.10
2023-05-22T13:03:07.115Z,23.10
2023-05-22T13:05:36.120Z,23.20
2023-05-22T13:08:05.204Z,23.50
2023-05-22T13:10:35.700Z,23.60
2023-05-22T13:13:03.775Z,23.80
2023-05-22T13:15:33.222Z,24.10
2023-05-22T13:18:01.847Z,24.20
2023-05-22T13:20:30.933Z,24.30
2023-05-22T13:22:59.828Z,24.00
2023-05-22T13:25:28.061Z,24.10
2023-05-22T13:27:59.177Z,24.30
2023-05-22T13:30:28.688Z,24.30
2023-05-22T13:32:57.497Z,24.30
2023-05-22T13:35:27.076Z,24.50
2023-05-22T13:37:55.807Z,24.60
2023-05-22T13:40:24.519Z,24.50
2023-05-22T13:42:53.786Z,24.60
2023-05-22T13:45:22.574Z,24.60
2023-05-22T13:47:51.255Z,24.40
2023-05-22T13:50:20.164Z,24.10
2023-05-22T13:52:49.496Z,24.10
2023-05-22T13:55:18.583Z,24.10
2023-05-22T13:57:47.924Z,23.80
2023-05-22T14:00:17.289Z,23.80
2023-05-22T14:02:46.632Z,23.70
2023-05-22T14:05:15.224Z,23.70
2023-05-22T14:07:43.968Z,23.70
2023-05-22T14:10:12.207Z,23.90
2023-05-22T14:12:40.913Z,23.50
2023-05-22T14:15:10.366Z,23.70
2023-05-22T14:17:39.087Z,23.80
2023-05-22T14:20:08.886Z,24.10
2023-05-22T14:22:55.478Z,23.90
2023-05-22T14:25:26.589Z,23.80
2023-05-22T14:27:55.445Z,23.70
2023-05-22T14:30:24.102Z,23.60
2023-05-22T14:32:53.030Z,23.60
2023-05-22T14:35:21.922Z,23.90
2023-05-22T14:37:50.688Z,24.10
2023-05-22T14:40:19.798Z,24.30
2023-05-22T14:42:50.715Z,24.30
2023-05-22T14:45:20.835Z,23.90
2023-05-22T14:47:49.159Z,23.60
2023-05-22T14:50:20.365Z,23.40
2023-05-22T14:52:50.182Z,23.30
2023-05-22T14:55:19.095Z,23.20
2023-05-22T14:57:48.070Z,23.00
2023-05-22T15:00:17.545Z,22.90
2023-05-22T15:02:46.427Z,22.90
2023-05-22T15:05:15.690Z,22.80
2023-05-22T15:07:46.700Z,22.80
2023-05-22T15:10:16.005Z,22.90
2023-05-22T15:12:44.307Z,23.00
2023-05-22T15:15:13.388Z,23.00
2023-05-22T15:17:43.080Z,23.00
2023-05-22T15:20:12.109Z,23.10
2023-05-22T15:22:40.656Z,22.90
2023-05-22T15:25:12.280Z,22.90
2023-05-22T15:27:43.343Z,23.10
2023-05-22T15:30:12.685Z,22.80
2023-05-22T15:32:41.947Z,22.60
2023-05-22T15:35:15.894Z,22.40
2023-05-22T15:37:44.446Z,22.50
2023-05-22T15:40:16.597Z,22.50
2023-05-22T15:42:45.420Z,22.40
2023-05-22T15:45:13.801Z,22.30
2023-05-22T15:47:43.114Z,22.30
2023-05-22T15:50:11.360Z,22.20
2023-05-22T15:52:40.853Z,22.10
2023-05-22T15:55:10.265Z,22.10
2023-05-22T15:57:39.055Z,21.80
2023-05-22T16:00:08.754Z,21.60
2023-05-22T16:02:37.965Z,21.60
2023-05-22T16:05:06.703Z,21.60
2023-05-22T16:07:35.310Z,21.70
2023-05-22T16:10:04.279Z,21.70
2023-05-22T16:12:33.629Z,21.70
2023-05-22T16:15:03.285Z,21.50
2023-05-22T16:17:33.960Z,21.30
2023-05-22T16:20:04.785Z,20.70
2023-05-22T16:22:47.301Z,20.40
2023-05-22T16:25:18.348Z,20.20
2023-05-22T16:27:47.085Z,20.20
2023-05-22T16:30:17.310Z,20.20
2023-05-22T16:32:47.783Z,20.20
2023-05-22T16:35:17.018Z,20.00
2023-05-22T16:37:45.687Z,19.70
2023-05-22T16:40:15.227Z,19.60
2023-05-22T16:42:44.050Z,19.60
2023-05-22T16:45:12.683Z,19.60
2023-05-22T16:47:40.843Z,19.60
2023-05-22T16:50:09.646Z,19.70
2023-05-22T16:52:38.838Z,19.60
2023-05-22T16:55:08.854Z,19.30
2023-05-22T16:57:36.953Z,19.00
2023-05-22T17:00:07.079Z,19.00
2023-05-22T17:02:36.484Z,19.00
2023-05-22T17:05:06.256Z,19.10
2023-05-22T17:07:34.657Z,19.10
2023-05-22T17:10:03.015Z,19.10
2023-05-22T17:12:34.096Z,19.20
2023-05-22T17:15:02.729Z,19.10
2023-05-22T17:17:35.078Z,19.20
2023-05-22T17:20:07.447Z,19.20
2023-05-22T17:22:37.512Z,19.10
2023-05-22T17:25:06.355Z,19.00
2023-05-22T17:27:36.656Z,18.90
2023-05-22T17:30:07.953Z,18.90
2023-05-22T17:32:36.503Z,18.80
2023-05-22T17:35:07.112Z,18.80
2023-05-22T17:37:35.947Z,18.70
2023-05-22T17:40:04.865Z,18.70
2023-05-22T17:42:34.190Z,18.60
2023-05-22T17:45:02.755Z,18.60
2023-05-22T17:47:35.884Z,18.50
2023-05-22T17:50:05.369Z,18.50
2023-05-22T17:52:34.406Z,18.40
2023-05-22T17:55:03.969Z,18.40
2023-05-22T17:57:33.700Z,18.40
2023-05-22T18:00:02.145Z,18.20
2023-05-22T18:02:41.455Z,18.10
2023-05-22T18:05:11.374Z,18.10
2023-05-22T18:07:39.960Z,18.10
2023-05-22T18:10:09.163Z,18.10
2023-05-22T18:12:38.502Z,18.20
2023-05-22T18:15:10.754Z,18.00
2023-05-22T18:17:41.555Z,17.90
2023-05-22T18:20:12.362Z,17.80
2023-05-22T18:22:41.088Z,17.90
2023-05-22T18:25:10.551Z,17.90
2023-05-22T18:27:38.720Z,17.90
2023-05-22T18:30:08.179Z,17.80
2023-05-22T18:32:37.074Z,17.70
2023-05-22T18:35:06.198Z,17.70
2023-05-22T18:37:41.172Z,17.70
2023-05-22T18:40:11.808Z,17.70
2023-05-22T18:42:40.398Z,17.70
2023-05-22T18:45:09.571Z,17.70
2023-05-22T18:47:38.536Z,17.60
2023-05-22T18:50:08.402Z,17.40
2023-05-22T18:52:37.192Z,17.50
2023-05-22T18:55:06.508Z,17.40
2023-05-22T18:57:34.672Z,17.40
2023-05-22T19:00:03.612Z,17.40
2023-05-22T19:02:35.035Z,17.40
2023-05-22T19:05:05.014Z,17.30
2023-05-22T19:07:33.695Z,17.20
2023-05-22T19:10:01.860Z,17.00
2023-05-22T19:12:34.218Z,16.80
2023-05-22T19:15:03.883Z,16.70
2023-05-22T19:17:34.191Z,16.60
2023-05-22T19:20:06.619Z,16.60
2023-05-22T19:22:35.079Z,16.50
2023-05-22T19:25:03.298Z,16.50
2023-05-22T19:27:32.296Z,16.50
2023-05-22T19:30:00.585Z,16.50
2023-05-22T19:32:29.872Z,16.40
2023-05-22T19:34:58.068Z,16.40
2023-05-22T19:37:26.365Z,16.40
2023-05-22T19:39:54.719Z,16.30
2023-05-22T19:42:23.070Z,16.40
2023-05-22T19:44:51.256Z,16.30
2023-05-22T19:47:19.422Z,16.30
2023-05-22T19:49:47.536Z,16.30
2023-05-22T19:52:16.031Z,16.20
2023-05-22T19:54:44.183Z,16.20
2023-05-22T19:57:12.274Z,16.10
2023-05-22T19:59:40.612Z,16.10
2023-05-22T20:02:08.973Z,16.10
2023-05-22T20:04:43.082Z,16.10
2023-05-22T20:07:11.421Z,16.20
2023-05-22T20:09:39.519Z,16.20
2023-05-22T20:12:07.985Z,16.20
2023-05-22T20:14:36.535Z,16.10
2023-05-22T20:17:05.072Z,16.00
2023-05-22T20:19:34.681Z,15.90
2023-05-22T20:22:05.650Z,15.80
2023-05-22T20:24:35.766Z,15.80
2023-05-22T20:27:06.371Z,15.80
2023-05-22T20:29:34.527Z,15.80
2023-05-22T20:32:02.888Z,15.70
2023-05-22T20:34:32.239Z,15.70
2023-05-22T20:37:00.753Z,15.60
2023-05-22T20:39:29.537Z,15.50
2023-05-22T20:41:57.704Z,15.40
2023-05-22T20:44:25.844Z,15.30
2023-05-22T20:46:54.218Z,15.30
2023-05-22T20:49:22.506Z,15.30
2023-05-22T20:51:51.112Z,15.20
2023-05-22T20:54:19.452Z,15.10
2023-05-22T20:56:47.692Z,15.10
2023-05-22T20:59:15.930Z,15.20
2023-05-22T21:01:45.016Z,15.20
2023-05-22T21:04:13.365Z,15.10
2023-05-22T21:06:41.489Z,15.10
2023-05-22T21:09:09.881Z,15.10
2023-05-22T21:11:38.125Z,15.10
2023-05-22T21:14:06.235Z,15.10
2023-05-22T21:16:36.357Z,15.10
2023-05-22T21:19:07.693Z,15.20
2023-05-22T21:21:41.805Z,15.20
2023-05-22T21:24:10.650Z,15.20
2023-05-22T21:26:39.636Z,15.10
2023-05-22T21:29:08.353Z,15.10
2023-05-22T21:31:36.536Z,15.10
2023-05-22T21:34:04.782Z,15.10
2023-05-22T21:36:33.000Z,15.00
2023-05-22T21:39:01.110Z,15.00
2023-05-22T21:41:29.448Z,15.00
2023-05-22T21:43:58.170Z,14.90
2023-05-22T21:46:26.503Z,15.00
2023-05-22T21:48:54.652Z,15.00
2023-05-22T21:51:22.917Z,14.90
2023-05-22T21:53:51.267Z,14.90
2023-05-22T21:56:19.464Z,15.00
2023-05-22T21:58:48.768Z,15.00
2023-05-22T22:01:17.346Z,14.90
2023-05-22T22:03:45.489Z,14.90
2023-05-22T22:06:13.622Z,14.80
2023-05-22T22:08:41.973Z,14.80
2023-05-22T22:11:10.134Z,14.70
2023-05-22T22:13:38.314Z,14.70
2023-05-22T22:16:06.546Z,14.70
2023-05-22T22:18:34.862Z,14.80
2023-05-22T22:21:03.149Z,14.80
2023-05-22T22:23:31.415Z,14.70
2023-05-22T22:25:59.571Z,14.70
2023-05-22T22:28:27.771Z,14.80
2023-05-22T22:30:56.157Z,14.80
2023-05-22T22:33:24.885Z,14.70
2023-05-22T22:35:53.213Z,14.60
2023-05-22T22:38:21.363Z,14.50
2023-05-22T22:40:49.434Z,14.40
2023-05-22T22:43:17.830Z,14.30
2023-05-22T22:45:46.692Z,14.30
2023-05-22T22:48:16.721Z,14.30
2023-05-22T22:50:47.014Z,14.20
2023-05-22T22:53:15.148Z,14.20
2023-05-22T22:55:43.604Z,14.20
2023-05-22T22:58:11.873Z,14.20
2023-05-22T23:00:40.122Z,14.20
2023-05-22T23:03:08.882Z,14.10
2023-05-22T23:05:37.134Z,14.00
2023-05-22T23:08:05.262Z,14.00
2023-05-22T23:10:33.497Z,14.00
2023-05-22T23:13:01.683Z,14.00
2023-05-22T23:15:30.168Z,14.10
2023-05-22T23:17:58.157Z,14.20
2023-05-22T23:20:26.624Z,14.20
2023-05-22T23:22:55.080Z,14.30
2023-05-22T23:25:23.120Z,14.20
2023-05-22T23:27:52.327Z,14.20
2023-05-22T23:30:20.604Z,14.10
2023-05-22T23:32:48.894Z,14.10
2023-05-22T23:35:17.537Z,14.20
2023-05-22T23:37:45.669Z,14.10
2023-05-22T23:40:14.060Z,14.10
2023-05-22T23:42:42.167Z,14.10
2023-05-22T23:45:10.790Z,14.00
2023-05-22T23:47:39.177Z,13.90
2023-05-22T23:50:08.035Z,13.90
2023-05-22T23:52:36.800Z,13.90
2023-05-22T23:55:05.318Z,13.90
2023-05-22T23:57:33.412Z,14.00
